Terminal Aerodrome Forecast
Issued by NWS

Home | Current Version | Previous Version | Text Only | Print | Product List | Glossary On
Versions: 1 2 3 4 5 6 7 8 9 10 11 12 13 14
000
FTUS42 KJAX 211300 AAA
TAFVQQ
TAF AMD
KVQQ 211317Z 2113/2212 04005KT 2SM BR VCSH OVC004
     FM211400 05005KT 4SM RA BR OVC005
     FM211800 02004KT 5SM BR VCSH OVC007
     FM220000 03003KT 3SM -RA BR BKN005=

USA.gov is the U.S. government's official web portal to all federal, state and local government web resources and services.